![]() |
EMODnet Physics ERDDAP
Easier access to scientific data |
log in|
Brought to you by EMODnet Physics |
| Dataset Title: | NDBC - Collection of dew point temperature (DEWT) TimeSeries - IN SITU MultiPointTimeSeriesObservation
|
| Institution: | NDBC (Dataset ID: TS_DEWT_NDBC) |
| Information: | Summary
| License
| FGDC
| ISO 19115
| Metadata
| Background
| Subset
| Data Access Form
| Make a graph
|
| Name | Last modified | Size | Description | |
|---|---|---|---|---|
| Parent Directory | - | - | ||
| 42058_TS_DEWT_012006.nc | 26-Oct-2024 16:29 | 1261787 | ||
| 42058_TS_DEWT_012007.nc | 26-Oct-2024 16:29 | 1144088 | ||
| 42058_TS_DEWT_012009.nc | 26-Oct-2024 16:29 | 1144206 | ||
| 42058_TS_DEWT_012012.nc | 26-Oct-2024 16:29 | 4677152 | ||
| 42058_TS_DEWT_012013.nc | 26-Oct-2024 16:29 | 433588 | ||
| 42058_TS_DEWT_012014.nc | 26-Oct-2024 16:30 | 433354 | ||
| 42058_TS_DEWT_012015.nc | 26-Oct-2024 16:30 | 426040 | ||
| 42058_TS_DEWT_012016.nc | 26-Oct-2024 16:30 | 424025 | ||
| 42058_TS_DEWT_012017.nc | 26-Oct-2024 16:30 | 429581 | ||
| 42058_TS_DEWT_012018.nc | 26-Oct-2024 16:30 | 425639 | ||
| 42058_TS_DEWT_012020.nc | 26-Oct-2024 16:30 | 429608 | ||
| 42058_TS_DEWT_012024.nc | 26-Oct-2024 16:30 | 421134 | ||
| 42058_TS_DEWT_012025.nc | 07-Feb-2025 09:49 | 429606 | ||
| 42058_TS_DEWT_012026.nc | 17-Feb-2026 06:43 | 426138 | ||
| 42058_TS_DEWT_022006.nc | 26-Oct-2024 16:30 | 428293 | ||
| 42058_TS_DEWT_022007.nc | 26-Oct-2024 16:30 | 429602 | ||
| 42058_TS_DEWT_022009.nc | 26-Oct-2024 16:30 | 429620 | ||
| 42058_TS_DEWT_022012.nc | 26-Oct-2024 16:30 | 429612 | ||
| 42058_TS_DEWT_022013.nc | 26-Oct-2024 16:30 | 429616 | ||
| 42058_TS_DEWT_022014.nc | 26-Oct-2024 16:30 | 429617 | ||
| 42058_TS_DEWT_022015.nc | 26-Oct-2024 16:30 | 429281 | ||
| 42058_TS_DEWT_022016.nc | 26-Oct-2024 16:30 | 429619 | ||
| 42058_TS_DEWT_022017.nc | 26-Oct-2024 16:30 | 450723 | ||
| 42058_TS_DEWT_022018.nc | 26-Oct-2024 16:30 | 451227 | ||
| 42058_TS_DEWT_022020.nc | 26-Oct-2024 16:30 | 436495 | ||
| 42058_TS_DEWT_022024.nc | 16-Sep-2024 16:51 | 450482 | ||
| 42058_TS_DEWT_022025.nc | 01-Mar-2025 06:43 | 450309 | ||
| 42058_TS_DEWT_032006.nc | 26-Oct-2024 16:30 | 450118 | ||
| 42058_TS_DEWT_032007.nc | 26-Oct-2024 16:30 | 450472 | ||
| 42058_TS_DEWT_032009.nc | 26-Oct-2024 16:30 | 449091 | ||
| 42058_TS_DEWT_032012.nc | 26-Oct-2024 16:30 | 429352 | ||
| 42058_TS_DEWT_032013.nc | 26-Oct-2024 16:30 | 451364 | ||
| 42058_TS_DEWT_032014.nc | 26-Oct-2024 16:31 | 450151 | ||
| 42058_TS_DEWT_032015.nc | 26-Oct-2024 16:31 | 450784 | ||
| 42058_TS_DEWT_032016.nc | 26-Oct-2024 16:31 | 449475 | ||
| 42058_TS_DEWT_032017.nc | 26-Oct-2024 16:31 | 451335 | ||
| 42058_TS_DEWT_032018.nc | 26-Oct-2024 16:31 | 449592 | ||
| 42058_TS_DEWT_032020.nc | 26-Oct-2024 16:31 | 450526 | ||
| 42058_TS_DEWT_032025.nc | 02-Apr-2025 05:22 | 429836 | ||
| 42058_TS_DEWT_042006.nc | 26-Oct-2024 16:31 | 422456 | ||
| 42058_TS_DEWT_042007.nc | 26-Oct-2024 16:31 | 429589 | ||
| 42058_TS_DEWT_042009.nc | 26-Oct-2024 16:31 | 429787 | ||
| 42058_TS_DEWT_042012.nc | 26-Oct-2024 16:31 | 449509 | ||
| 42058_TS_DEWT_042013.nc | 26-Oct-2024 16:31 | 450681 | ||
| 42058_TS_DEWT_042014.nc | 26-Oct-2024 16:31 | 450181 | ||
| 42058_TS_DEWT_042015.nc | 26-Oct-2024 16:31 | 450975 | ||
| 42058_TS_DEWT_042016.nc | 26-Oct-2024 16:31 | 450313 | ||
| 42058_TS_DEWT_042017.nc | 26-Oct-2024 16:31 | 429822 | ||
| 42058_TS_DEWT_042018.nc | 26-Oct-2024 16:31 | 1265567 | ||
| 42058_TS_DEWT_042019.nc | 26-Oct-2024 16:31 | 1267552 | ||
| 42058_TS_DEWT_042020.nc | 26-Oct-2024 16:31 | 1144148 | ||
| 42058_TS_DEWT_042023.nc | 26-Oct-2024 16:31 | 1144018 | ||
| 42058_TS_DEWT_042025.nc | 01-May-2025 04:05 | 5467085 | ||
| 42058_TS_DEWT_052006.nc | 26-Oct-2024 16:31 | 430627 | ||
| 42058_TS_DEWT_052007.nc | 26-Oct-2024 16:32 | 432619 | ||
| 42058_TS_DEWT_052008.nc | 26-Oct-2024 16:32 | 421599 | ||
| 42058_TS_DEWT_052009.nc | 26-Oct-2024 16:32 | 426782 | ||
| 42058_TS_DEWT_052011.nc | 26-Oct-2024 16:32 | 429248 | ||
| 42058_TS_DEWT_052012.nc | 26-Oct-2024 16:32 | 429273 | ||
| 42058_TS_DEWT_052013.nc | 26-Oct-2024 16:32 | 429252 | ||
| 42058_TS_DEWT_052014.nc | 26-Oct-2024 16:32 | 429254 | ||
| 42058_TS_DEWT_052015.nc | 26-Oct-2024 16:32 | 420999 | ||
| 42058_TS_DEWT_052016.nc | 26-Oct-2024 16:32 | 429253 | ||
| 42058_TS_DEWT_052017.nc | 26-Oct-2024 16:32 | 427344 | ||
| 42058_TS_DEWT_052018.nc | 26-Oct-2024 16:32 | 429276 | ||
| 42058_TS_DEWT_052019.nc | 26-Oct-2024 16:32 | 424836 | ||
| 42058_TS_DEWT_052020.nc | 26-Oct-2024 16:32 | 428778 | ||
| 42058_TS_DEWT_052021.nc | 26-Oct-2024 16:32 | 429295 | ||
| 42058_TS_DEWT_052023.nc | 26-Oct-2024 16:32 | 429283 | ||
| 42058_TS_DEWT_052025.nc | 01-Jun-2025 04:12 | 429288 | ||
| 42058_TS_DEWT_062005.nc | 26-Oct-2024 16:32 | 429289 | ||
| 42058_TS_DEWT_062006.nc | 26-Oct-2024 16:32 | 428646 | ||
| 42058_TS_DEWT_062008.nc | 26-Oct-2024 16:32 | 449859 | ||
| 42058_TS_DEWT_062009.nc | 26-Oct-2024 16:32 | 448592 | ||
| 42058_TS_DEWT_062011.nc | 26-Oct-2024 16:32 | 448338 | ||
| 42058_TS_DEWT_062012.nc | 26-Oct-2024 16:33 | 448884 | ||
| 42058_TS_DEWT_062013.nc | 26-Oct-2024 16:33 | 448602 | ||
| 42058_TS_DEWT_062014.nc | 26-Oct-2024 16:33 | 449870 | ||
| 42058_TS_DEWT_062015.nc | 26-Oct-2024 16:33 | 450074 | ||
| 42058_TS_DEWT_062016.nc | 26-Oct-2024 16:33 | 434614 | ||
| 42058_TS_DEWT_062017.nc | 26-Oct-2024 16:33 | 450020 | ||
| 42058_TS_DEWT_062018.nc | 26-Oct-2024 16:33 | 449036 | ||
| 42058_TS_DEWT_062019.nc | 26-Oct-2024 16:33 | 449613 | ||
| 42058_TS_DEWT_062020.nc | 26-Oct-2024 16:33 | 448660 | ||
| 42058_TS_DEWT_062021.nc | 26-Oct-2024 16:33 | 450703 | ||
| 42058_TS_DEWT_062023.nc | 26-Oct-2024 16:33 | 450470 | ||
| 42058_TS_DEWT_062025.nc | 01-Jul-2025 04:14 | 449167 | ||
| 42058_TS_DEWT_072005.nc | 26-Oct-2024 16:33 | 449690 | ||
| 42058_TS_DEWT_072006.nc | 26-Oct-2024 16:33 | 429493 | ||
| 42058_TS_DEWT_072008.nc | 26-Oct-2024 16:33 | 422368 | ||
| 42058_TS_DEWT_072009.nc | 26-Oct-2024 16:33 | 439526 | ||
| 42058_TS_DEWT_072011.nc | 26-Oct-2024 16:33 | 427703 | ||
| 42058_TS_DEWT_072012.nc | 26-Oct-2024 16:33 | 429490 | ||
| 42058_TS_DEWT_072013.nc | 26-Oct-2024 16:33 | 448096 | ||
| 42058_TS_DEWT_072014.nc | 26-Oct-2024 16:34 | 449290 | ||
| 42058_TS_DEWT_072015.nc | 26-Oct-2024 16:34 | 449379 | ||
| 42058_TS_DEWT_072016.nc | 26-Oct-2024 16:34 | 448378 | ||
| 42058_TS_DEWT_072017.nc | 26-Oct-2024 16:34 | 449266 | ||
| 42058_TS_DEWT_072019.nc | 26-Oct-2024 16:34 | 429493 | ||
| 42058_TS_DEWT_072020.nc | 26-Oct-2024 16:34 | 1116882 | ||
| 42058_TS_DEWT_072021.nc | 26-Oct-2024 16:34 | 995746 | ||
| 42058_TS_DEWT_072023.nc | 26-Oct-2024 16:34 | 995737 | ||
| 42058_TS_DEWT_072025.nc | 01-Aug-2025 04:23 | 995743 | ||
| 42058_TS_DEWT_082005.nc | 26-Oct-2024 16:34 | 4734751 | ||
| 42058_TS_DEWT_082006.nc | 26-Oct-2024 16:34 | 434221 | ||
| 42058_TS_DEWT_082008.nc | 26-Oct-2024 16:34 | 433183 | ||
| 42058_TS_DEWT_082009.nc | 26-Oct-2024 16:34 | 425994 | ||
| 42058_TS_DEWT_082011.nc | 26-Oct-2024 16:34 | 426174 | ||
| 42058_TS_DEWT_082012.nc | 26-Oct-2024 16:34 | 429590 | ||
| 42058_TS_DEWT_082013.nc | 26-Oct-2024 16:34 | 429589 | ||
| 42058_TS_DEWT_082014.nc | 26-Oct-2024 16:34 | 429603 | ||
| 42058_TS_DEWT_082015.nc | 26-Oct-2024 16:34 | 429349 | ||
| 42058_TS_DEWT_082016.nc | 26-Oct-2024 16:34 | 429605 | ||
| 42058_TS_DEWT_082017.nc | 26-Oct-2024 16:34 | 429608 | ||
| 42058_TS_DEWT_082019.nc | 26-Oct-2024 16:34 | 429603 | ||
| 42058_TS_DEWT_082021.nc | 26-Oct-2024 16:34 | 429608 | ||
| 42058_TS_DEWT_082023.nc | 26-Oct-2024 16:34 | 427977 | ||
| 42058_TS_DEWT_082025.nc | 01-Sep-2025 04:27 | 429594 | ||
| 42058_TS_DEWT_092005.nc | 26-Oct-2024 16:34 | 429624 | ||
| 42058_TS_DEWT_092006.nc | 26-Oct-2024 16:34 | 429611 | ||
| 42058_TS_DEWT_092008.nc | 26-Oct-2024 16:35 | 429612 | ||
| 42058_TS_DEWT_092009.nc | 26-Oct-2024 16:35 | 429604 | ||
| 42058_TS_DEWT_092011.nc | 26-Oct-2024 16:35 | 451053 | ||
| 42058_TS_DEWT_092012.nc | 26-Oct-2024 16:35 | 451194 | ||
| 42058_TS_DEWT_092013.nc | 26-Oct-2024 16:35 | 450927 | ||
| 42058_TS_DEWT_092014.nc | 26-Oct-2024 16:35 | 450965 | ||
| 42058_TS_DEWT_092015.nc | 26-Oct-2024 16:35 | 450118 | ||
| 42058_TS_DEWT_092016.nc | 26-Oct-2024 16:35 | 451463 | ||
| 42058_TS_DEWT_092017.nc | 26-Oct-2024 16:35 | 450501 | ||
| 42058_TS_DEWT_092019.nc | 26-Oct-2024 16:35 | 429611 | ||
| 42058_TS_DEWT_092021.nc | 26-Oct-2024 16:35 | 449233 | ||
| 42058_TS_DEWT_092023.nc | 26-Oct-2024 16:35 | 450929 | ||
| 42058_TS_DEWT_092025.nc | 01-Oct-2025 04:03 | 449998 | ||
| 42058_TS_DEWT_102005.nc | 26-Oct-2024 16:35 | 449814 | ||
| 42058_TS_DEWT_102006.nc | 26-Oct-2024 16:35 | 450244 | ||
| 42058_TS_DEWT_102008.nc | 26-Oct-2024 16:35 | 449972 | ||
| 42058_TS_DEWT_102009.nc | 26-Oct-2024 16:35 | 451003 | ||
| 42058_TS_DEWT_102011.nc | 26-Oct-2024 16:35 | 450693 | ||
| 42058_TS_DEWT_102012.nc | 26-Oct-2024 16:35 | 429835 | ||
| 42058_TS_DEWT_102013.nc | 26-Oct-2024 16:35 | 420256 | ||
| 42058_TS_DEWT_102014.nc | 26-Oct-2024 16:35 | 429838 | ||
| 42058_TS_DEWT_102015.nc | 26-Oct-2024 16:35 | 427251 | ||
| 42058_TS_DEWT_102016.nc | 26-Oct-2024 16:36 | 429823 | ||
| 42058_TS_DEWT_102017.nc | 26-Oct-2024 16:36 | 449784 | ||
| 42058_TS_DEWT_102019.nc | 26-Oct-2024 16:36 | 439181 | ||
| 42058_TS_DEWT_102023.nc | 26-Oct-2024 16:36 | 451555 | ||
| 42058_TS_DEWT_102025.nc | 01-Nov-2025 06:05 | 431682 | ||
| 42058_TS_DEWT_112005.nc | 26-Oct-2024 16:36 | 450672 | ||
| 42058_TS_DEWT_112006.nc | 26-Oct-2024 16:36 | 635663 | ||
| 42058_TS_DEWT_112008.nc | 26-Oct-2024 16:36 | 1267594 | ||
| 42058_TS_DEWT_112009.nc | 26-Oct-2024 16:36 | 1144003 | ||
| 42058_TS_DEWT_112011.nc | 26-Oct-2024 16:36 | 1144213 | ||
| 42058_TS_DEWT_112012.nc | 26-Oct-2024 16:36 | 1144217 | ||
| 42058_TS_DEWT_112013.nc | 26-Oct-2024 16:36 | 5739258 | ||
| 42058_TS_DEWT_112014.nc | 26-Oct-2024 16:36 | 432770 | ||
| 42058_TS_DEWT_112015.nc | 26-Oct-2024 16:36 | 432865 | ||
| 42058_TS_DEWT_112016.nc | 26-Oct-2024 16:36 | 425973 | ||
| 42058_TS_DEWT_112017.nc | 26-Oct-2024 16:36 | 425968 | ||
| 42058_TS_DEWT_112019.nc | 26-Oct-2024 16:36 | 429275 | ||
| 42058_TS_DEWT_112023.nc | 26-Oct-2024 16:36 | 429139 | ||
| 42058_TS_DEWT_112024.nc | 17-Jan-2025 14:38 | 429269 | ||
| 42058_TS_DEWT_112025.nc | 01-Dec-2025 06:46 | 429269 | ||
| 42058_TS_DEWT_122005.nc | 26-Oct-2024 16:37 | 429270 | ||
| 42058_TS_DEWT_122006.nc | 26-Oct-2024 16:37 | 429269 | ||
| 42058_TS_DEWT_122008.nc | 26-Oct-2024 16:37 | 429278 | ||
| 42058_TS_DEWT_122011.nc | 26-Oct-2024 16:37 | 429271 | ||
| 42058_TS_DEWT_122012.nc | 26-Oct-2024 16:37 | 427959 | ||
| 42058_TS_DEWT_122013.nc | 26-Oct-2024 16:37 | 425876 | ||
| 42058_TS_DEWT_122014.nc | 26-Oct-2024 16:37 | 429287 | ||
| 42058_TS_DEWT_122015.nc | 26-Oct-2024 16:37 | 429287 | ||
| 42058_TS_DEWT_122016.nc | 26-Oct-2024 16:37 | 429294 | ||
| 42058_TS_DEWT_122017.nc | 26-Oct-2024 16:37 | 429292 | ||
| 42058_TS_DEWT_122019.nc | 26-Oct-2024 16:37 | 429289 | ||
| 42058_TS_DEWT_122023.nc | 26-Oct-2024 16:37 | 450161 | ||
| 42058_TS_DEWT_122024.nc | 22-Jan-2025 16:28 | 449413 | ||
| 42058_TS_DEWT_122025.nc | 01-Jan-2026 06:42 | 449697 | ||